createdAt,value
2022-11-05T00:02:22.276Z,97170.25
2022-11-05T00:05:07.652Z,97186.63
2022-11-05T00:08:00.541Z,97178.41
2022-11-05T00:10:30.138Z,97190.88
2022-11-05T00:13:18.680Z,97203.34
2022-11-05T00:16:04.484Z,97196.31
2022-11-05T00:18:31.011Z,97200.31
2022-11-05T00:20:57.788Z,97198.41
2022-11-05T00:23:42.684Z,97205.44
2022-11-05T00:26:11.398Z,97216.31
2022-11-05T00:28:38.875Z,97215.97
2022-11-05T00:31:09.653Z,97215.97
2022-11-05T00:33:37.129Z,97210.06
2022-11-05T00:36:04.565Z,97211.19
2022-11-05T00:38:30.933Z,97217.78
2022-11-05T00:40:57.353Z,97222.44
2022-11-05T00:43:42.264Z,97223.19
2022-11-05T00:46:09.146Z,97232.06
2022-11-05T00:48:53.901Z,97241.75
2022-11-05T00:51:20.531Z,97238.78
2022-11-05T00:53:46.826Z,97238.06
2022-11-05T00:56:13.400Z,97246.66
2022-11-05T00:58:39.781Z,97246.22
2022-11-05T01:01:06.359Z,97249.75
2022-11-05T01:03:36.133Z,97248.63
2022-11-05T01:06:14.518Z,97240.78
2022-11-05T01:08:45.315Z,97254.41
2022-11-05T01:11:33.002Z,97255.19
2022-11-05T01:14:11.633Z,97254.31
2022-11-05T01:16:39.438Z,97257.56
2022-11-05T01:19:08.012Z,97265.31
2022-11-05T01:21:34.452Z,97264.53
2022-11-05T01:24:01.747Z,97273.91
2022-11-05T01:26:28.480Z,97269.56
2022-11-05T01:28:57.591Z,97271.16
2022-11-05T01:31:24.661Z,97271.78
2022-11-05T01:33:51.050Z,97273.38
2022-11-05T01:36:17.768Z,97277.25
2022-11-05T01:38:44.358Z,97268.31
2022-11-05T01:41:11.130Z,97274.16
2022-11-05T01:43:48.524Z,97272.94
2022-11-05T01:46:17.744Z,97275.97
2022-11-05T01:48:44.171Z,97278.34
2022-11-05T01:51:15.003Z,97290.47
2022-11-05T01:53:55.802Z,97289.00
2022-11-05T01:56:37.557Z,97293.31
2022-11-05T01:59:11.620Z,97298.75
2022-11-05T02:01:38.122Z,97303.44
2022-11-05T02:04:09.840Z,97306.56
2022-11-05T02:06:46.209Z,97300.31
2022-11-05T02:09:20.536Z,97302.28
2022-11-05T02:11:47.386Z,97312.84
2022-11-05T02:14:13.677Z,97304.69
2022-11-05T02:16:49.079Z,97301.97
2022-11-05T02:19:24.382Z,97306.59
2022-11-05T02:22:09.418Z,97299.19
2022-11-05T02:25:06.757Z,97288.22
2022-11-05T02:28:10.688Z,97297.41
2022-11-05T02:31:04.614Z,97300.91
2022-11-05T02:33:44.075Z,97288.50
2022-11-05T02:36:25.801Z,97288.41
2022-11-05T02:39:11.694Z,97290.69
2022-11-05T02:42:05.743Z,97282.16
2022-11-05T02:44:53.074Z,97290.00
2022-11-05T02:47:44.049Z,97288.50
2022-11-05T02:50:44.502Z,97297.38
2022-11-05T02:53:13.856Z,97293.59
2022-11-05T02:55:46.853Z,97297.84
2022-11-05T02:58:13.366Z,97299.44
2022-11-05T03:00:53.049Z,97300.59
2022-11-05T03:03:53.414Z,97295.41
2022-11-05T03:07:01.854Z,97297.03
2022-11-05T03:09:35.813Z,97298.19
2022-11-05T03:12:23.925Z,97296.56
2022-11-05T03:15:03.376Z,97306.25
2022-11-05T03:17:50.042Z,97295.31
2022-11-05T03:20:23.490Z,97302.50
2022-11-05T03:22:55.201Z,97300.59
2022-11-05T03:25:24.067Z,97308.31
2022-11-05T03:27:57.391Z,97309.59
2022-11-05T03:30:25.147Z,97315.06
2022-11-05T03:32:59.137Z,97314.63
2022-11-05T03:35:33.856Z,97318.88
2022-11-05T03:38:04.130Z,97320.50
2022-11-05T03:40:35.174Z,97324.34
2022-11-05T03:43:05.425Z,97333.66
2022-11-05T03:45:38.219Z,97329.31
2022-11-05T03:48:06.124Z,97331.19
2022-11-05T03:50:45.081Z,97344.41
2022-11-05T03:53:18.328Z,97349.81
2022-11-05T03:56:04.124Z,97349.47
2022-11-05T03:58:31.353Z,97355.31
2022-11-05T04:01:02.071Z,97354.16
2022-11-05T04:03:35.935Z,97366.28
2022-11-05T04:06:26.197Z,97365.00
2022-11-05T04:09:11.012Z,97368.50
2022-11-05T04:11:55.770Z,97372.41
2022-11-05T04:14:22.070Z,97377.03
2022-11-05T04:17:06.332Z,97372.78
2022-11-05T04:20:01.868Z,97374.84
2022-11-05T04:22:49.745Z,97374.88
2022-11-05T04:25:17.271Z,97377.59
2022-11-05T04:27:44.434Z,97387.31
2022-11-05T04:30:21.425Z,97389.56
2022-11-05T04:33:01.595Z,97385.69
2022-11-05T04:35:30.715Z,97388.78
2022-11-05T04:37:57.088Z,97401.59
2022-11-05T04:40:23.929Z,97399.66
2022-11-05T04:42:50.237Z,97402.00
2022-11-05T04:45:16.561Z,97394.97
2022-11-05T04:47:42.955Z,97403.47
2022-11-05T04:50:10.540Z,97396.03
2022-11-05T04:52:36.861Z,97400.47
2022-11-05T04:55:03.644Z,97393.47
2022-11-05T04:57:29.926Z,97398.91
2022-11-05T04:59:56.340Z,97398.91
2022-11-05T05:02:22.745Z,97393.47
2022-11-05T05:04:49.140Z,97402.09
2022-11-05T05:07:15.532Z,97393.56
2022-11-05T05:09:41.889Z,97397.84
2022-11-05T05:12:08.172Z,97405.19
2022-11-05T05:14:34.884Z,97400.53
2022-11-05T05:17:01.238Z,97406.41
2022-11-05T05:19:27.610Z,97404.47
2022-11-05T05:21:53.906Z,97400.59
2022-11-05T05:24:21.221Z,97405.28
2022-11-05T05:26:49.559Z,97408.38
2022-11-05T05:29:17.518Z,97412.25
2022-11-05T05:31:44.137Z,97420.00
2022-11-05T05:34:11.872Z,97423.06
2022-11-05T05:36:38.195Z,97426.19
2022-11-05T05:39:10.629Z,97433.13
2022-11-05T05:41:36.922Z,97430.38
2022-11-05T05:44:04.974Z,97434.28
2022-11-05T05:46:31.355Z,97442.06
2022-11-05T05:48:57.717Z,97446.72
2022-11-05T05:51:24.053Z,97442.47
2022-11-05T05:53:50.353Z,97445.56
2022-11-05T05:56:19.286Z,97451.81
2022-11-05T05:58:46.294Z,97452.56
2022-11-05T06:01:18.987Z,97454.16
2022-11-05T06:03:49.136Z,97456.88
2022-11-05T06:06:19.551Z,97456.50
2022-11-05T06:08:46.190Z,97461.94
2022-11-05T06:11:12.566Z,97462.75
2022-11-05T06:13:38.901Z,97468.91
2022-11-05T06:16:07.798Z,97468.16
2022-11-05T06:18:34.705Z,97474.72
2022-11-05T06:21:09.810Z,97478.31
2022-11-05T06:23:37.714Z,97473.63
2022-11-05T06:26:06.099Z,97483.41
2022-11-05T06:28:33.503Z,97490.06
2022-11-05T06:31:00.316Z,97484.63
2022-11-05T06:33:26.891Z,97494.34
2022-11-05T06:35:54.266Z,97499.03
2022-11-05T06:38:20.749Z,97500.97
2022-11-05T06:40:47.085Z,97509.91
2022-11-05T06:43:13.721Z,97512.66
2022-11-05T06:45:40.383Z,97508.75
2022-11-05T06:48:06.808Z,97516.16
2022-11-05T06:50:33.088Z,97517.31
2022-11-05T06:53:01.696Z,97516.94
2022-11-05T06:55:29.945Z,97511.09
2022-11-05T06:57:57.153Z,97521.22
2022-11-05T07:00:24.201Z,97516.16
2022-11-05T07:02:50.571Z,97525.88
2022-11-05T07:05:17.320Z,97532.06
2022-11-05T07:07:45.549Z,97543.31
2022-11-05T07:10:17.193Z,97539.81
2022-11-05T07:12:43.766Z,97542.16
2022-11-05T07:15:12.089Z,97546.81
2022-11-05T07:17:39.420Z,97548.75
2022-11-05T07:20:07.538Z,97547.53
2022-11-05T07:22:35.013Z,97559.28
2022-11-05T07:25:01.418Z,97561.94
2022-11-05T07:27:27.825Z,97571.69
2022-11-05T07:29:54.117Z,97574.34
2022-11-05T07:32:20.414Z,97576.28
2022-11-05T07:34:46.817Z,97580.88
2022-11-05T07:37:13.258Z,97581.78
2022-11-05T07:39:39.537Z,97591.06
2022-11-05T07:42:05.961Z,97587.19
2022-11-05T07:44:32.303Z,97593.72
2022-11-05T07:46:58.583Z,97599.50
2022-11-05T07:49:24.946Z,97589.41
2022-11-05T07:51:51.252Z,97591.06
2022-11-05T07:54:17.595Z,97591.78
2022-11-05T07:56:46.831Z,97601.84
2022-11-05T07:59:13.233Z,97600.41
2022-11-05T08:01:39.673Z,97609.72
2022-11-05T08:04:06.092Z,97603.84
2022-11-05T08:06:32.410Z,97606.50
2022-11-05T08:08:58.701Z,97609.59
2022-11-05T08:11:25.002Z,97612.78
2022-11-05T08:13:51.293Z,97612.00
2022-11-05T08:16:17.715Z,97616.69
2022-11-05T08:18:44.601Z,97628.31
2022-11-05T08:21:10.915Z,97618.09
2022-11-05T08:23:38.857Z,97622.00
2022-11-05T08:26:05.317Z,97625.91
2022-11-05T08:28:31.840Z,97621.16
2022-11-05T08:30:58.361Z,97624.25
2022-11-05T08:33:25.794Z,97609.44
2022-11-05T08:35:52.113Z,97616.31
2022-11-05T08:38:19.941Z,97613.91
2022-11-05T08:40:54.324Z,97615.03
2022-11-05T08:43:21.077Z,97617.09
2022-11-05T08:45:47.600Z,97614.03
2022-11-05T08:48:16.583Z,97618.41
2022-11-05T08:50:44.018Z,97612.25
2022-11-05T08:53:10.965Z,97626.56
2022-11-05T08:55:38.447Z,97621.91
2022-11-05T08:58:07.528Z,97617.31
2022-11-05T09:00:36.661Z,97623.59
2022-11-05T09:03:05.357Z,97622.31
2022-11-05T09:05:37.694Z,97620.81
2022-11-05T09:08:08.810Z,97624.75
2022-11-05T09:10:36.041Z,97634.78
2022-11-05T09:13:02.809Z,97631.66
2022-11-05T09:15:29.458Z,97638.06
2022-11-05T09:17:56.059Z,97638.66
2022-11-05T09:20:22.721Z,97638.97
2022-11-05T09:22:49.148Z,97638.56
2022-11-05T09:25:15.875Z,97640.25
2022-11-05T09:27:42.811Z,97640.53
2022-11-05T09:30:11.188Z,97640.88
2022-11-05T09:32:37.507Z,97643.34
2022-11-05T09:35:05.101Z,97640.81
2022-11-05T09:37:31.394Z,97634.66
2022-11-05T09:39:57.688Z,97641.63
2022-11-05T09:42:29.740Z,97644.38
2022-11-05T09:45:01.009Z,97642.94
2022-11-05T09:47:42.649Z,97644.97
2022-11-05T09:50:14.920Z,97654.34
2022-11-05T09:52:41.509Z,97655.47
2022-11-05T09:55:28.118Z,97656.59
2022-11-05T09:58:00.473Z,97652.44
2022-11-05T10:00:27.354Z,97655.38
2022-11-05T10:02:55.601Z,97662.13
2022-11-05T10:05:24.556Z,97663.22
2022-11-05T10:07:57.221Z,97659.50
2022-11-05T10:10:29.386Z,97661.03
2022-11-05T10:13:04.590Z,97667.78
2022-11-05T10:15:34.489Z,97662.91
2022-11-05T10:18:14.677Z,97666.25
2022-11-05T10:20:42.651Z,97655.22
2022-11-05T10:23:19.364Z,97657.88
2022-11-05T10:25:56.764Z,97656.72
2022-11-05T10:28:25.966Z,97665.06
2022-11-05T10:30:57.494Z,97650.81
2022-11-05T10:33:43.033Z,97660.75
2022-11-05T10:36:18.537Z,97670.25
2022-11-05T10:38:45.348Z,97665.81
2022-11-05T10:41:29.996Z,97676.97
2022-11-05T10:44:17.611Z,97673.69
2022-11-05T10:47:06.789Z,97672.59
2022-11-05T10:49:42.148Z,97667.13
2022-11-05T10:52:29.070Z,97666.91
2022-11-05T10:54:59.336Z,97669.63
2022-11-05T10:57:35.952Z,97677.50
2022-11-05T11:00:23.863Z,97676.09
2022-11-05T11:02:55.979Z,97684.13
2022-11-05T11:05:35.995Z,97680.44
2022-11-05T11:08:11.316Z,97679.38
2022-11-05T11:10:51.004Z,97686.00
2022-11-05T11:13:23.923Z,97680.28
2022-11-05T11:15:51.125Z,97683.19
2022-11-05T11:18:46.301Z,97684.31
2022-11-05T11:21:15.481Z,97689.13
2022-11-05T11:23:43.342Z,97699.53
2022-11-05T11:26:11.622Z,97693.59
2022-11-05T11:28:43.821Z,97698.75
2022-11-05T11:31:22.193Z,97692.34
2022-11-05T11:33:58.302Z,97697.31
2022-11-05T11:36:31.221Z,97693.06
2022-11-05T11:39:04.268Z,97694.88
2022-11-05T11:41:41.924Z,97695.34
2022-11-05T11:44:19.845Z,97690.66
2022-11-05T11:46:50.818Z,97698.63
2022-11-05T11:49:42.662Z,97705.72
2022-11-05T11:52:13.031Z,97709.56
2022-11-05T11:54:39.336Z,97705.72
2022-11-05T11:57:26.990Z,97706.09
2022-11-05T12:00:08.342Z,97707.75
2022-11-05T12:03:05.046Z,97706.44
2022-11-05T12:05:38.978Z,97704.09
2022-11-05T12:08:18.938Z,97708.69
2022-11-05T12:10:54.058Z,97703.03
2022-11-05T12:13:22.996Z,97707.53
2022-11-05T12:16:14.030Z,97699.53
2022-11-05T12:19:09.020Z,97712.28
2022-11-05T12:21:55.812Z,97705.22
2022-11-05T12:24:40.558Z,97705.69
2022-11-05T12:27:37.174Z,97713.84
2022-11-05T12:30:11.641Z,97703.78
2022-11-05T12:32:40.886Z,97717.66
2022-11-05T12:35:44.107Z,97719.97
2022-11-05T12:38:52.400Z,97712.38
2022-11-05T12:41:39.793Z,97716.25
2022-11-05T12:44:09.051Z,97718.63
2022-11-05T12:46:48.849Z,97708.50
2022-11-05T12:49:33.192Z,97717.41
2022-11-05T12:51:59.666Z,97722.41
2022-11-05T12:54:34.667Z,97713.53
2022-11-05T12:57:03.614Z,97718.25
2022-11-05T12:59:40.873Z,97717.66
2022-11-05T13:02:19.023Z,97723.84
2022-11-05T13:04:58.957Z,97721.47
2022-11-05T13:07:31.520Z,97717.91
2022-11-05T13:10:20.999Z,97706.84
2022-11-05T13:13:02.685Z,97716.97
2022-11-05T13:15:33.688Z,97714.00
2022-11-05T13:18:05.378Z,97711.63
2022-11-05T13:20:37.691Z,97717.91
2022-11-05T13:23:16.154Z,97719.19
2022-11-05T13:25:50.508Z,97719.38
2022-11-05T13:28:32.688Z,97722.72
2022-11-05T13:31:02.837Z,97717.09
2022-11-05T13:33:36.271Z,97713.53
2022-11-05T13:36:47.120Z,97714.56
2022-11-05T13:39:21.478Z,97716.28
2022-11-05T13:42:25.052Z,97719.09
2022-11-05T13:45:25.753Z,97721.91
2022-11-05T13:48:25.539Z,97717.44
2022-11-05T13:50:54.850Z,97725.25
2022-11-05T13:53:39.555Z,97736.59
2022-11-05T13:56:24.677Z,97731.50
2022-11-05T13:59:15.897Z,97729.16
2022-11-05T14:01:48.350Z,97737.56
2022-11-05T14:04:47.539Z,97743.63
2022-11-05T14:07:24.946Z,97735.97
2022-11-05T14:10:01.426Z,97736.41
2022-11-05T14:12:38.031Z,97740.41
2022-11-05T14:15:31.624Z,97745.47
2022-11-05T14:18:07.309Z,97748.41
2022-11-05T14:20:33.544Z,97754.78
2022-11-05T14:23:18.860Z,97758.34
2022-11-05T14:25:45.132Z,97757.72
2022-11-05T14:28:38.202Z,97755.53
2022-11-05T14:31:47.204Z,97751.22
2022-11-05T14:34:15.705Z,97760.00
2022-11-05T14:37:03.269Z,97763.16
2022-11-05T14:39:32.181Z,97762.09
2022-11-05T14:42:10.336Z,97762.22
2022-11-05T14:44:54.120Z,97768.00
2022-11-05T14:47:22.879Z,97776.22
2022-11-05T14:49:53.792Z,97778.94
2022-11-05T14:52:20.681Z,97779.00
2022-11-05T14:54:50.612Z,97775.91
2022-11-05T14:57:42.560Z,97779.00
2022-11-05T15:00:40.627Z,97782.94
2022-11-05T15:03:45.961Z,97784.84
2022-11-05T15:06:29.796Z,97788.16
2022-11-05T15:09:11.557Z,97794.34
2022-11-05T15:11:40.591Z,97784.69
2022-11-05T15:14:40.321Z,97786.19
2022-11-05T15:17:22.351Z,97786.91
2022-11-05T15:19:50.991Z,97798.75
2022-11-05T15:22:30.460Z,97796.06
2022-11-05T15:24:56.866Z,97804.59
2022-11-05T15:27:40.379Z,97807.63
2022-11-05T15:30:20.489Z,97806.13
2022-11-05T15:32:47.027Z,97817.97
2022-11-05T15:35:20.409Z,97821.44
2022-11-05T15:37:53.343Z,97822.16
2022-11-05T15:40:26.444Z,97823.34
2022-11-05T15:43:10.807Z,97816.28
2022-11-05T15:45:37.331Z,97831.94
2022-11-05T15:48:13.495Z,97831.59
2022-11-05T15:50:40.480Z,97830.00
2022-11-05T15:53:44.173Z,97834.28
2022-11-05T15:56:09.988Z,97835.91
2022-11-05T15:58:48.863Z,97838.69
2022-11-05T16:01:21.431Z,97844.53
2022-11-05T16:03:48.255Z,97841.47
2022-11-05T16:06:14.594Z,97844.28
2022-11-05T16:08:47.198Z,97839.16
2022-11-05T16:11:22.299Z,97837.50
2022-11-05T16:13:48.757Z,97838.34
2022-11-05T16:16:15.028Z,97844.94
2022-11-05T16:18:42.528Z,97847.75
2022-11-05T16:21:10.287Z,97847.72
2022-11-05T16:23:48.793Z,97850.47
2022-11-05T16:26:55.927Z,97855.53
2022-11-05T16:29:22.517Z,97855.50
2022-11-05T16:31:51.305Z,97855.59
2022-11-05T16:34:28.358Z,97850.19
2022-11-05T16:36:56.787Z,97851.34
2022-11-05T16:39:23.688Z,97851.34
2022-11-05T16:41:49.998Z,97852.44
2022-11-05T16:44:16.388Z,97853.59
2022-11-05T16:46:47.539Z,97854.03
2022-11-05T16:49:14.613Z,97864.16
2022-11-05T16:51:41.533Z,97862.22
2022-11-05T16:54:08.018Z,97869.72
2022-11-05T16:56:34.829Z,97879.88
2022-11-05T16:59:02.641Z,97878.34
2022-11-05T17:01:29.233Z,97887.34
2022-11-05T17:03:55.572Z,97881.53
2022-11-05T17:06:22.175Z,97889.34
2022-11-05T17:08:48.822Z,97889.75
2022-11-05T17:11:17.311Z,97898.69
2022-11-05T17:13:44.354Z,97901.03
2022-11-05T17:16:17.178Z,97902.63
2022-11-05T17:18:44.074Z,97906.13
2022-11-05T17:21:12.493Z,97912.00
2022-11-05T17:23:38.797Z,97902.25
2022-11-05T17:26:09.068Z,97915.94
2022-11-05T17:28:37.585Z,97915.88
2022-11-05T17:31:06.725Z,97915.09
2022-11-05T17:33:33.568Z,97929.16
2022-11-05T17:36:00.255Z,97926.06
2022-11-05T17:38:26.910Z,97931.50
2022-11-05T17:40:53.765Z,97927.59
2022-11-05T17:43:20.798Z,97930.72
2022-11-05T17:45:50.032Z,97939.28
2022-11-05T17:48:16.846Z,97933.44
2022-11-05T17:50:45.365Z,97937.34
2022-11-05T17:53:13.495Z,97946.34
2022-11-05T17:55:41.889Z,97935.41
2022-11-05T17:58:08.444Z,97937.72
2022-11-05T18:00:35.473Z,97938.50
2022-11-05T18:03:02.051Z,97951.00
2022-11-05T18:05:30.308Z,97947.88
2022-11-05T18:07:57.447Z,97952.56
2022-11-05T18:10:24.412Z,97952.56
2022-11-05T18:12:51.405Z,97958.00
2022-11-05T18:15:18.204Z,97956.88
2022-11-05T18:17:45.648Z,97960.38
2022-11-05T18:20:19.375Z,97956.84
2022-11-05T18:22:47.942Z,97946.31
2022-11-05T18:25:14.363Z,97945.97
2022-11-05T18:27:41.147Z,97952.56
2022-11-05T18:30:08.774Z,97956.09
2022-11-05T18:32:35.779Z,97954.91
2022-11-05T18:35:02.097Z,97960.38
2022-11-05T18:37:28.421Z,97951.78
2022-11-05T18:39:54.738Z,97955.28
2022-11-05T18:42:21.341Z,97955.28
2022-11-05T18:44:48.505Z,97958.44
2022-11-05T18:47:14.864Z,97957.63
2022-11-05T18:49:41.145Z,97961.16
2022-11-05T18:52:07.472Z,97958.03
2022-11-05T18:54:34.027Z,97968.94
2022-11-05T18:57:00.391Z,97960.34
2022-11-05T18:59:37.617Z,97963.47
2022-11-05T19:02:05.960Z,97961.91
2022-11-05T19:04:32.746Z,97963.09
2022-11-05T19:07:04.443Z,97958.03
2022-11-05T19:13:18.638Z,97973.59
2022-11-05T19:15:44.992Z,97972.84
2022-11-05T19:18:11.559Z,97986.09
2022-11-05T19:20:38.875Z,97982.97
2022-11-05T19:23:05.296Z,97990.38
2022-11-05T19:25:31.860Z,98000.09
2022-11-05T19:27:58.526Z,97995.41
2022-11-05T19:30:25.902Z,97996.22
2022-11-05T19:32:52.206Z,98003.25
2022-11-05T19:35:18.549Z,98002.44
2022-11-05T19:37:45.101Z,98000.88
2022-11-05T19:40:11.838Z,97996.19
2022-11-05T19:42:38.382Z,97999.31
2022-11-05T19:45:30.285Z,97991.09
2022-11-05T19:47:51.472Z,98000.06
2022-11-05T19:50:17.904Z,97991.09
2022-11-05T19:52:44.207Z,97984.47
2022-11-05T19:55:12.229Z,97989.16
2022-11-05T19:57:38.795Z,97980.97
2022-11-05T20:00:05.768Z,97973.19
2022-11-05T20:02:32.132Z,97982.53
2022-11-05T20:04:58.523Z,97977.06
2022-11-05T20:07:24.841Z,97980.19
2022-11-05T20:09:51.151Z,97989.88
2022-11-05T20:12:17.802Z,97990.66
2022-11-05T20:14:44.817Z,98001.53
2022-11-05T20:17:11.137Z,98003.44
2022-11-05T20:19:37.417Z,98010.06
2022-11-05T20:22:03.702Z,98010.44
2022-11-05T20:24:30.033Z,98008.47
2022-11-05T20:26:57.014Z,98008.44
2022-11-05T20:29:29.111Z,98005.28
2022-11-05T20:32:01.947Z,98004.50
2022-11-05T20:34:30.278Z,98011.91
2022-11-05T20:36:56.563Z,98013.84
2022-11-05T20:39:22.941Z,98004.47
2022-11-05T20:41:49.322Z,98000.97
2022-11-05T20:44:15.615Z,98001.75
2022-11-05T20:46:41.941Z,97998.25
2022-11-05T20:49:08.316Z,97997.75
2022-11-05T20:51:34.628Z,98003.56
2022-11-05T20:54:01.256Z,98004.34
2022-11-05T20:56:31.169Z,98006.69
2022-11-05T20:58:59.303Z,98015.56
2022-11-05T21:01:32.234Z,98014.38
2022-11-05T21:03:59.682Z,98004.22
2022-11-05T21:06:26.493Z,98003.44
2022-11-05T21:08:53.040Z,98004.16
2022-11-05T21:11:19.904Z,98015.31
2022-11-05T21:13:46.771Z,98012.53
2022-11-05T21:16:18.021Z,98023.06
2022-11-05T21:18:45.942Z,98020.28
2022-11-05T21:21:15.323Z,98018.69
2022-11-05T21:23:41.912Z,98013.59
2022-11-05T21:26:11.958Z,98017.03
2022-11-05T21:28:39.876Z,98012.69
2022-11-05T21:31:07.306Z,98013.81
2022-11-05T21:33:33.995Z,98006.81
2022-11-05T21:36:09.004Z,98012.59
2022-11-05T21:38:35.537Z,98013.75
2022-11-05T21:41:02.909Z,98010.47
2022-11-05T21:43:29.397Z,98012.03
2022-11-05T21:45:55.728Z,98012.00
2022-11-05T21:48:22.003Z,98012.78
2022-11-05T21:51:10.764Z,98013.47
2022-11-05T21:53:55.393Z,98024.25
2022-11-05T21:56:42.749Z,98033.22
2022-11-05T21:59:31.024Z,98029.28
2022-11-05T22:02:01.394Z,98028.59
2022-11-05T22:04:29.831Z,98019.16
2022-11-05T22:06:56.918Z,98027.31
2022-11-05T22:09:24.102Z,98030.03
2022-11-05T22:11:50.445Z,98028.47
2022-11-05T22:14:16.764Z,98027.34
2022-11-05T22:16:43.226Z,98027.31
2022-11-05T22:19:09.542Z,98028.88
2022-11-05T22:21:35.822Z,98026.84
2022-11-05T22:24:02.161Z,98028.78
2022-11-05T22:26:28.564Z,98028.72
2022-11-05T22:28:55.769Z,98031.78
2022-11-05T22:31:22.259Z,98023.28
2022-11-05T22:33:49.099Z,98019.78
2022-11-05T22:36:15.767Z,98023.28
2022-11-05T22:38:42.231Z,98033.38
2022-11-05T22:41:14.833Z,98022.34
2022-11-05T22:43:41.637Z,98014.63
2022-11-05T22:46:10.890Z,98017.84
2022-11-05T22:48:38.843Z,98007.72
2022-11-05T22:51:07.680Z,98006.13
2022-11-05T22:53:35.670Z,98007.22
2022-11-05T22:56:07.272Z,98011.09
2022-11-05T22:58:33.677Z,98009.53
2022-11-05T23:01:00.793Z,98015.69
2022-11-05T23:03:28.827Z,98014.44
2022-11-05T23:06:26.893Z,98007.84
2022-11-05T23:09:11.670Z,98006.00
2022-11-05T23:11:40.588Z,98012.06
2022-11-05T23:14:09.379Z,98025.38
2022-11-05T23:16:55.037Z,98013.72
2022-11-05T23:19:40.797Z,98012.19
2022-11-05T23:22:31.206Z,98016.06
2022-11-05T23:24:57.540Z,98020.63
2022-11-05T23:27:24.024Z,98019.06
2022-11-05T23:30:12.853Z,98018.13
2022-11-05T23:32:39.213Z,98009.66
2022-11-05T23:35:06.347Z,98002.22
2022-11-05T23:37:51.565Z,98013.66
2022-11-05T23:40:21.056Z,98011.28
2022-11-05T23:43:06.457Z,98011.50
2022-11-05T23:45:52.357Z,98013.09
2022-11-05T23:48:21.769Z,98008.41
2022-11-05T23:50:56.152Z,98005.84
2022-11-05T23:53:22.975Z,98000.75
2022-11-05T23:55:49.917Z,98004.19
2022-11-05T23:58:16.922Z,98004.69
